»·PEaware :: N198JT KHQM-KOTH

N198JT :: KHQM-KOTH

FLIGHT INFORMATION

Flight Status: Arrived
Operator: Privately registered:
United States
More flights under this callsign
Pilot: Jeremy T. (18871)
Aircraft: PIPER PA-24 COMMANCHE
(PA24)
More flights by this aircraft type
Origin: KHQM Bowerman
United States
Destination: KOTH North Bend Mun
United States
More flights between these airports :: More routes between these airports
Route: HQM ILWAC CUTEL ONP YUPVU
File this flight plan on PilotEdge
Remarks:
Altitude:
(Current/Filed)
6,000ft
Speed:
(Current/Filed)
150kts
Departed: 22-Mar-20 01:03 PM
Arrived: 22-Mar-20 02:48 PM
Distance/Time
Traveled:
214nm/1:45
Distance/Time
To Go:
Arrived

Flight Plot

Page will automatically refresh every two minutes.


Map Options




Map Legend


Flown Route
Filed Route
Departure Airport
Arrival Airport
Navaid (VOR, NDB)
Fix

Horizontal Profiles

Position Reports

Time Latitude Longitude Heading Altitude Ground
Speed
22-Mar-20 12:45 46.973573 -123.929736 348 17ft 0kts
22-Mar-20 12:46 46.973577 -123.929738 348 17ft 0kts
22-Mar-20 12:47 46.973584 -123.929740 348 17ft 0kts
22-Mar-20 12:48 46.973588 -123.929741 348 17ft 0kts
22-Mar-20 12:49 46.973591 -123.929741 348 17ft 0kts
22-Mar-20 12:50 46.973594 -123.929742 348 17ft 0kts
22-Mar-20 12:50 46.973597 -123.929743 348 17ft 0kts
22-Mar-20 12:52 46.973601 -123.929744 348 17ft 0kts
22-Mar-20 12:53 46.973604 -123.929745 348 17ft 0kts
22-Mar-20 12:53 46.973607 -123.929746 348 17ft 0kts
22-Mar-20 12:54 46.973610 -123.929747 348 17ft 0kts
22-Mar-20 12:56 46.973614 -123.929748 348 17ft 0kts
22-Mar-20 12:57 46.973617 -123.929749 348 17ft 0kts
22-Mar-20 12:57 46.973620 -123.929750 348 17ft 0kts
22-Mar-20 12:58 46.973623 -123.929751 348 17ft 0kts
22-Mar-20 13:00 46.973513 -123.928049 108 17ft 8kts
22-Mar-20 13:00 46.972359 -123.927163 248 17ft 2kts
22-Mar-20 13:01 46.972341 -123.927245 254 17ft 0kts
22-Mar-20 13:02 46.971377 -123.934869 258 78ft 89kts
22-Mar-20 13:03 46.969827 -123.976191 264 1404ft 107kts
22-Mar-20 13:04 46.958847 -124.017925 240 2643ft 108kts
22-Mar-20 13:05 46.948674 -124.059724 251 3844ft 110kts
22-Mar-20 13:06 46.937707 -124.102213 243 4891ft 112kts
22-Mar-20 13:07 46.918408 -124.137771 210 5854ft 115kts
22-Mar-20 13:08 46.882858 -124.146945 189 6059ft 148kts
22-Mar-20 13:09 46.840512 -124.155708 188 5957ft 155kts
22-Mar-20 13:10 46.797033 -124.153312 180 5958ft 155kts
22-Mar-20 13:11 46.753828 -124.152227 182 5986ft 155kts
22-Mar-20 13:12 46.710508 -124.151327 181 6009ft 155kts
22-Mar-20 13:13 46.667254 -124.150383 181 6034ft 155kts
22-Mar-20 13:14 46.628990 -124.149503 181 6051ft 155kts
22-Mar-20 13:15 46.585709 -124.148451 182 6074ft 155kts
22-Mar-20 13:16 46.542587 -124.150732 184 6091ft 155kts
22-Mar-20 13:17 46.499350 -124.153077 184 6105ft 155kts
22-Mar-20 13:18 46.456031 -124.156571 185 6118ft 155kts
22-Mar-20 13:19 46.412800 -124.160068 185 6138ft 155kts
22-Mar-20 13:20 46.369560 -124.164432 187 6152ft 155kts
22-Mar-20 13:21 46.326434 -124.170039 187 6164ft 155kts
22-Mar-20 13:22 46.283225 -124.172767 184 6179ft 155kts
22-Mar-20 13:23 46.239846 -124.172571 179 6189ft 156kts
22-Mar-20 13:24 46.196423 -124.169032 179 6204ft 156kts
22-Mar-20 13:25 46.152908 -124.164634 177 6216ft 156kts
22-Mar-20 13:26 46.109443 -124.159743 178 6203ft 157kts
22-Mar-20 13:27 46.065911 -124.154965 178 6201ft 156kts
22-Mar-20 13:28 46.022333 -124.149958 177 6181ft 157kts
22-Mar-20 13:29 45.978816 -124.144964 178 6178ft 156kts
22-Mar-20 13:30 45.935252 -124.139980 177 6170ft 156kts
22-Mar-20 13:31 45.891762 -124.134795 176 6164ft 156kts
22-Mar-20 13:32 45.848448 -124.127462 175 6159ft 157kts
22-Mar-20 13:33 45.804960 -124.119967 175 6157ft 157kts
22-Mar-20 13:34 45.761678 -124.112446 175 6155ft 157kts
22-Mar-20 13:35 45.718339 -124.104781 175 6153ft 157kts
22-Mar-20 13:36 45.674910 -124.097087 175 6154ft 157kts
22-Mar-20 13:37 45.631576 -124.089364 175 6139ft 158kts
22-Mar-20 13:38 45.588006 -124.081879 175 6152ft 157kts
22-Mar-20 13:39 45.544565 -124.074280 175 6150ft 157kts
22-Mar-20 13:40 45.501019 -124.066632 175 6155ft 157kts
22-Mar-20 13:41 45.457491 -124.058898 175 6157ft 157kts
22-Mar-20 13:42 45.414046 -124.051925 176 6161ft 157kts
22-Mar-20 13:43 45.370505 -124.045190 175 6166ft 157kts
22-Mar-20 13:44 45.326684 -124.038631 176 6152ft 158kts
22-Mar-20 13:45 45.283038 -124.032176 176 6160ft 157kts
22-Mar-20 13:46 45.239268 -124.026818 177 6159ft 157kts
22-Mar-20 13:47 45.195483 -124.022399 177 6164ft 157kts
22-Mar-20 13:48 45.151687 -124.017992 177 6149ft 158kts
22-Mar-20 13:49 45.107861 -124.013777 177 6164ft 158kts
22-Mar-20 13:50 45.063942 -124.009466 177 6164ft 158kts
22-Mar-20 13:51 45.020098 -124.005160 177 6172ft 157kts
22-Mar-20 13:52 44.976236 -124.001336 181 6173ft 157kts
22-Mar-20 13:53 44.932146 -124.004092 184 6167ft 158kts
22-Mar-20 13:54 44.888369 -124.007932 185 6177ft 157kts
22-Mar-20 13:55 44.844510 -124.012609 185 6184ft 157kts
22-Mar-20 13:56 44.800656 -124.017233 185 6191ft 157kts
22-Mar-20 13:57 44.760507 -124.021461 184 6198ft 157kts
22-Mar-20 13:58 44.716623 -124.026158 184 6190ft 158kts
22-Mar-20 13:59 44.672636 -124.030956 185 6194ft 158kts
22-Mar-20 14:00 44.628721 -124.035751 184 6197ft 158kts
22-Mar-20 14:01 44.584786 -124.040507 184 6203ft 158kts
22-Mar-20 14:02 44.540848 -124.045287 184 6207ft 158kts
22-Mar-20 14:03 44.496939 -124.050034 184 6212ft 158kts
22-Mar-20 14:04 44.453061 -124.054761 184 6217ft 158kts
22-Mar-20 14:05 44.409243 -124.059500 184 6222ft 158kts
22-Mar-20 14:06 44.365251 -124.064202 184 6226ft 158kts
22-Mar-20 14:07 44.321427 -124.068843 184 6230ft 158kts
22-Mar-20 14:08 44.277578 -124.073415 184 6234ft 158kts
22-Mar-20 14:09 44.233583 -124.077952 184 6240ft 158kts
22-Mar-20 14:10 44.189754 -124.082379 184 6245ft 158kts
22-Mar-20 14:11 44.145858 -124.086756 184 6251ft 158kts
22-Mar-20 14:12 44.101884 -124.091034 183 6256ft 158kts
22-Mar-20 14:13 44.058044 -124.095229 183 6262ft 158kts
22-Mar-20 14:14 44.014149 -124.099291 183 6268ft 158kts
22-Mar-20 14:15 43.970305 -124.103801 184 6274ft 158kts
22-Mar-20 14:16 43.926320 -124.108810 184 6280ft 158kts
22-Mar-20 14:17 43.885315 -124.125054 224 6282ft 157kts
22-Mar-20 14:18 43.856887 -124.171454 220 6171ft 164kts
22-Mar-20 14:19 43.823505 -124.214402 220 6035ft 160kts
22-Mar-20 14:20 43.789848 -124.254166 219 6038ft 158kts
22-Mar-20 14:21 43.756634 -124.294209 220 6044ft 158kts
22-Mar-20 14:22 43.723237 -124.333705 219 6047ft 158kts
22-Mar-20 14:23 43.689746 -124.373314 220 6050ft 158kts
22-Mar-20 14:24 43.656339 -124.412813 219 6053ft 158kts
22-Mar-20 14:25 43.622656 -124.452088 220 6056ft 158kts
22-Mar-20 14:26 43.588995 -124.491668 219 5916ft 162kts
22-Mar-20 14:27 43.554351 -124.531702 219 5159ft 162kts
22-Mar-20 14:28 43.519516 -124.572081 220 4088ft 162kts
22-Mar-20 14:29 43.487857 -124.616216 225 2894ft 158kts
22-Mar-20 14:30 43.458285 -124.657009 225 2078ft 141kts
22-Mar-20 14:31 43.432354 -124.692144 225 1888ft 126kts
22-Mar-20 14:32 43.409187 -124.723323 225 1980ft 114kts
22-Mar-20 14:33 43.383965 -124.750948 181 1844ft 121kts
22-Mar-20 14:34 43.367556 -124.718558 105 1962ft 110kts
22-Mar-20 14:35 43.358702 -124.677337 106 1969ft 112kts
22-Mar-20 14:36 43.350417 -124.636117 104 2002ft 112kts
22-Mar-20 14:37 43.341813 -124.594804 105 2023ft 112kts
22-Mar-20 14:38 43.333440 -124.553584 104 2042ft 111kts
22-Mar-20 14:39 43.330361 -124.511438 87 2061ft 110kts
22-Mar-20 14:41 43.331874 -124.469363 85 2137ft 110kts
22-Mar-20 14:42 43.344279 -124.430925 58 2145ft 110kts
22-Mar-20 14:43 43.359518 -124.394635 67 2190ft 107kts
22-Mar-20 14:44 43.372891 -124.359912 67 1693ft 99kts
22-Mar-20 14:45 43.387176 -124.328978 55 1287ft 93kts
22-Mar-20 14:46 43.399688 -124.298109 60 642ft 87kts
22-Mar-20 14:47 43.410512 -124.271044 56 184ft 78kts
22-Mar-20 14:48 43.418120 -124.252308 96 11ft 8kts
22-Mar-20 14:49 43.417635 -124.251633 147 11ft 0kts
22-Mar-20 14:50 43.418112 -124.249460 60 11ft 12kts
22-Mar-20 14:51 43.416699 -124.245164 149 11ft 19kts
22-Mar-20 14:52 43.415441 -124.245603 233 11ft 0kts
22-Mar-20 14:53 43.415441 -124.245604 233 11ft 0kts
22-Mar-20 14:54 43.415441 -124.245604 233 11ft 0kts
22-Mar-20 14:55 43.415441 -124.245604 233 11ft 0kts
22-Mar-20 14:56 43.415441 -124.245604 233 11ft 0kts
22-Mar-20 14:57 43.415441 -124.245604 233 11ft 0kts
22-Mar-20 14:58 43.415441 -124.245604 233 11ft 0kts
22-Mar-20 14:58 43.415441 -124.245604 233 11ft 0kts
22-Mar-20 15:00 43.415441 -124.245604 233 11ft 0kts
22-Mar-20 15:01 43.415441 -124.245604 233 11ft 0kts
22-Mar-20 15:02 43.415441 -124.245604 233 11ft 0kts

Navigation Log

Ident Type
Flight plan parsing failed, navigation log unavailable